Time;durP1;ratioP1;P1;durP2;ratioP2;P2;SDS_P1;SDS_P2;PMS_P1;PMS_P2;Temp;Humidity;BMP_temperature;BMP_pressure;BME280_temperature;BME280_humidity;BME280_pressure;Samples;Min_cycle;Max_cycle;Signal;HPM_P1;HPM_P2
2022/02/20 00:01:30;;;;;;;4.93;2.37;;;9.50;99.90;;;;;;6071088;23;20402;-85
2022/02/20 00:04:00;;;;;;;8.80;2.57;;;9.50;99.90;;;;;;6067776;23;20418;-84
2022/02/20 00:06:33;;;;;;;5.17;2.23;;;9.50;99.90;;;;;;6067858;23;20524;-86
2022/02/20 00:09:12;;;;;;;7.67;2.50;;;9.50;99.90;;;;;;6050082;23;20488;-84
2022/02/20 00:11:41;;;;;;;7.73;2.30;;;9.60;99.90;;;;;;6073575;23;20990;-84
2022/02/20 00:14:18;;;;;;;7.77;3.00;;;9.60;99.90;;;;;;6046851;23;20451;-87
2022/02/20 00:17:01;;;;;;;6.23;2.60;;;9.60;99.90;;;;;;6046814;23;20872;-84
2022/02/20 00:19:52;;;;;;;6.63;1.93;;;9.60;99.90;;;;;;6053303;23;20798;-86
2022/02/20 00:22:46;;;;;;;4.93;2.47;;;9.70;99.90;;;;;;6041247;23;20398;-84
2022/02/20 00:25:24;;;;;;;10.80;2.63;;;9.60;99.90;;;;;;6059306;23;20445;-85
2022/02/20 00:28:17;;;;;;;7.97;2.67;;;9.70;99.90;;;;;;6074681;23;20425;-85
2022/02/20 00:31:21;;;;;;;4.60;1.87;;;9.70;99.90;;;;;;6049714;23;20956;-85
2022/02/20 00:33:56;;;;;;;8.30;2.30;;;9.70;99.90;;;;;;6068350;23;20472;-85
2022/02/20 00:36:22;;;;;;;10.40;3.60;;;9.80;99.90;;;;;;6069637;23;20409;-85
2022/02/20 00:39:09;;;;;;;9.57;2.80;;;9.80;99.90;;;;;;6068335;23;20420;-85
2022/02/20 00:41:38;;;;;;;18.57;2.77;;;9.80;99.90;;;;;;6044502;23;20414;-84
2022/02/20 00:44:05;;;;;;;11.37;4.20;;;9.80;99.90;;;;;;6067415;23;20489;-83
2022/02/20 00:46:35;;;;;;;11.40;2.37;;;9.80;99.90;;;;;;6068378;23;20453;-83
2022/02/20 00:49:04;;;;;;;2.87;1.60;;;9.80;99.90;;;;;;6072957;23;20512;-83
2022/02/20 00:51:31;;;;;;;6.30;2.30;;;9.70;99.90;;;;;;6072458;23;20414;-85
2022/02/20 00:53:58;;;;;;;11.07;2.87;;;9.70;99.90;;;;;;6074034;23;20449;-84
2022/02/20 00:56:24;;;;;;;6.80;2.27;;;9.70;99.90;;;;;;6065516;23;20413;-84
2022/02/20 00:58:51;;;;;;;6.57;2.67;;;9.70;99.90;;;;;;6047711;23;20424;-85
2022/02/20 01:01:17;;;;;;;13.63;2.77;;;9.60;99.90;;;;;;6045442;23;20417;-84
2022/02/20 01:03:44;;;;;;;6.30;2.60;;;9.60;99.90;;;;;;6044103;23;20417;-85
2022/02/20 01:06:11;;;;;;;4.50;1.80;;;9.50;99.90;;;;;;6073485;23;20414;-86
2022/02/20 01:08:39;;;;;;;4.70;1.73;;;9.50;99.90;;;;;;6086505;23;20440;-85
2022/02/20 01:11:06;;;;;;;2.77;1.73;;;9.40;99.90;;;;;;6072727;23;20486;-85
2022/02/20 01:13:32;;;;;;;4.27;2.00;;;9.40;99.40;;;;;;6071594;23;20445;-85
2022/02/20 01:15:59;;;;;;;4.70;2.30;;;9.30;98.40;;;;;;6047217;23;20417;-85
2022/02/20 01:18:26;;;;;;;7.73;1.77;;;9.30;98.00;;;;;;6070825;23;20448;-87
2022/02/20 01:20:53;;;;;;;4.87;1.53;;;9.20;97.10;;;;;;6069740;23;20420;-86
2022/02/20 01:23:20;;;;;;;3.30;1.60;;;9.20;96.90;;;;;;6071973;23;20435;-86
2022/02/20 01:25:49;;;;;;;3.33;1.67;;;9.10;96.70;;;;;;6070389;23;21248;-84
2022/02/20 01:28:16;;;;;;;2.40;2.00;;;9.10;96.60;;;;;;6046908;23;20449;-86
2022/02/20 01:30:42;;;;;;;4.07;1.40;;;9.10;96.70;;;;;;6069511;23;20401;-85
2022/02/20 01:33:11;;;;;;;5.77;1.63;;;9.00;96.70;;;;;;6046083;23;20417;-85
2022/02/20 01:35:37;;;;;;;4.10;1.60;;;9.00;96.90;;;;;;6072640;23;20418;-86
2022/02/20 01:38:04;;;;;;;2.90;1.50;;;9.00;96.90;;;;;;6086126;23;20449;-86
2022/02/20 01:40:32;;;;;;;4.17;1.70;;;8.90;97.10;;;;;;6071423;23;20428;-86
2022/02/20 01:43:00;;;;;;;2.43;1.67;;;8.90;97.10;;;;;;6071584;23;20429;-84
2022/02/20 01:45:28;;;;;;;3.63;1.47;;;8.90;97.10;;;;;;6071150;23;20468;-86
2022/02/20 01:47:55;;;;;;;6.13;2.47;;;8.80;97.20;;;;;;6073117;23;20440;-84
2022/02/20 01:50:31;;;;;;;5.13;2.27;;;8.80;97.30;;;;;;6092693;23;20394;-86
2022/02/20 01:53:12;;;;;;;2.90;1.60;;;8.80;97.40;;;;;;6085543;23;20417;-86
2022/02/20 01:56:08;;;;;;;3.53;1.50;;;8.80;97.40;;;;;;6090966;23;20402;-84
2022/02/20 01:58:41;;;;;;;4.20;2.10;;;8.70;97.50;;;;;;6089846;23;20429;-87
2022/02/20 02:01:25;;;;;;;5.97;2.40;;;8.70;97.60;;;;;;6078903;23;20401;-87
2022/02/20 02:04:04;;;;;;;2.40;1.63;;;8.70;97.90;;;;;;6082924;23;20719;-83
2022/02/20 02:06:44;;;;;;;3.83;2.00;;;8.60;98.10;;;;;;6066927;23;21094;-83
2022/02/20 02:09:32;;;;;;;2.80;1.60;;;8.60;98.50;;;;;;6070649;23;20424;-85
2022/02/20 02:12:20;;;;;;;5.00;2.13;;;8.50;98.70;;;;;;6065637;23;20405;-84
2022/02/20 02:15:19;;;;;;;2.50;1.90;;;8.50;99.00;;;;;;6067674;23;20437;-84
2022/02/20 02:17:56;;;;;;;7.40;2.07;;;8.50;99.30;;;;;;6067515;23;20482;-85
2022/02/20 02:20:33;;;;;;;3.80;2.60;;;8.50;99.60;;;;;;6068857;23;20417;-87
2022/02/20 02:23:29;;;;;;;4.80;2.43;;;8.50;99.80;;;;;;6075271;23;20480;-86
2022/02/20 02:26:15;;;;;;;2.50;2.30;;;8.40;99.90;;;;;;6074248;23;20423;-83
2022/02/20 02:28:53;;;;;;;4.30;2.43;;;8.40;99.90;;;;;;6090899;23;20928;-87
2022/02/20 02:31:33;;;;;;;2.50;2.30;;;8.30;99.90;;;;;;6071945;23;20417;-83
2022/02/20 02:34:02;;;;;;;8.90;3.40;;;8.30;99.90;;;;;;6072090;23;20444;-85
2022/02/20 02:36:29;;;;;;;6.60;2.50;;;8.20;99.90;;;;;;6069872;23;20501;-85
2022/02/20 02:38:58;;;;;;;4.63;3.13;;;8.20;99.90;;;;;;6071424;23;20412;-85
2022/02/20 02:41:36;;;;;;;6.10;3.20;;;8.20;99.90;;;;;;6072154;23;20404;-85
2022/02/20 02:44:16;;;;;;;3.27;2.60;;;8.20;99.90;;;;;;6069899;23;20425;-85
2022/02/20 02:47:08;;;;;;;5.30;2.67;;;8.20;99.90;;;;;;6062238;23;20447;-84
2022/02/20 02:49:53;;;;;;;3.77;3.40;;;8.10;99.90;;;;;;6037282;23;20874;-83
2022/02/20 02:52:42;;;;;;;6.43;3.17;;;8.10;99.90;;;;;;6039614;23;20987;-83
2022/02/20 02:55:22;;;;;;;4.70;2.53;;;8.00;99.90;;;;;;6038380;23;20475;-87
2022/02/20 02:57:49;;;;;;;5.20;2.20;;;8.00;99.90;;;;;;6060723;23;20504;-86
2022/02/20 03:00:16;;;;;;;3.80;2.70;;;8.00;99.90;;;;;;6044101;23;20454;-84
2022/02/20 03:02:43;;;;;;;3.10;2.80;;;8.00;99.90;;;;;;6071748;23;20413;-82
2022/02/20 03:05:09;;;;;;;3.30;2.57;;;7.90;99.90;;;;;;6073912;23;20938;-86
2022/02/20 03:07:38;;;;;;;4.00;2.70;;;7.90;99.90;;;;;;6089659;23;20456;-82
2022/02/20 03:10:06;;;;;;;2.60;2.40;;;7.90;99.90;;;;;;6029331;23;20433;-85
2022/02/20 03:12:33;;;;;;;4.33;2.80;;;7.90;99.90;;;;;;6086356;23;20397;-81
2022/02/20 03:15:00;;;;;;;4.17;3.27;;;7.90;99.90;;;;;;6087369;23;20519;-84
2022/02/20 03:17:27;;;;;;;6.17;3.27;;;7.90;99.90;;;;;;6083251;23;20429;-83
2022/02/20 03:19:57;;;;;;;3.90;2.43;;;7.90;99.90;;;;;;6061273;23;20416;-85
2022/02/20 03:22:27;;;;;;;3.83;2.67;;;7.90;99.90;;;;;;6064949;23;20408;-84
2022/02/20 03:24:54;;;;;;;11.97;3.93;;;7.90;99.90;;;;;;6090344;23;20428;-84
2022/02/20 03:27:21;;;;;;;6.07;3.00;;;7.90;99.90;;;;;;6091308;23;20449;-86
2022/02/20 03:29:48;;;;;;;4.57;2.73;;;7.80;99.90;;;;;;6092276;23;20397;-82
2022/02/20 03:32:14;;;;;;;6.63;3.00;;;7.80;99.90;;;;;;6091735;23;20460;-85
2022/02/20 03:34:41;;;;;;;6.23;3.40;;;7.80;99.90;;;;;;6064903;23;20457;-83
2022/02/20 03:37:08;;;;;;;3.07;2.87;;;7.80;99.90;;;;;;6092101;23;20867;-85
2022/02/20 03:39:34;;;;;;;4.80;3.10;;;7.80;99.90;;;;;;6090055;23;20936;-84
2022/02/20 03:42:02;;;;;;;3.83;2.93;;;7.80;99.90;;;;;;6091529;23;20417;-86
2022/02/20 03:44:29;;;;;;;4.73;3.37;;;7.80;99.90;;;;;;6090581;23;20402;-85
2022/02/20 03:46:56;;;;;;;4.10;3.07;;;7.80;99.90;;;;;;6064057;23;20430;-85
2022/02/20 03:49:22;;;;;;;7.83;3.60;;;7.70;99.90;;;;;;6088802;23;20441;-86
2022/02/20 03:51:49;;;;;;;7.43;3.90;;;7.70;99.90;;;;;;6057733;23;20421;-85
2022/02/20 03:54:16;;;;;;;4.53;3.43;;;7.70;99.90;;;;;;6076624;23;20540;-87
2022/02/20 03:56:42;;;;;;;6.50;3.37;;;7.70;99.90;;;;;;6076827;23;20430;-84
2022/02/20 03:59:09;;;;;;;5.77;3.60;;;7.80;99.90;;;;;;6075381;23;20406;-84
2022/02/20 04:01:36;;;;;;;4.50;3.40;;;7.80;99.90;;;;;;6051026;23;20590;-86
2022/02/20 04:04:03;;;;;;;5.00;3.27;;;7.80;99.90;;;;;;6049840;23;20418;-86
2022/02/20 04:06:29;;;;;;;5.40;2.93;;;7.80;99.90;;;;;;6074473;23;20417;-85
2022/02/20 04:08:56;;;;;;;4.77;2.90;;;7.80;99.90;;;;;;6074766;23;20461;-87
2022/02/20 04:11:23;;;;;;;8.83;3.80;;;7.80;99.90;;;;;;6082342;23;20509;-86
2022/02/20 04:13:49;;;;;;;5.50;2.90;;;7.70;99.90;;;;;;6090219;23;20471;-87
2022/02/20 04:16:29;;;;;;;9.73;4.00;;;7.70;99.90;;;;;;6091083;23;20482;-86
2022/02/20 04:18:58;;;;;;;9.33;2.97;;;7.70;99.90;;;;;;6065647;23;20465;-82
2022/02/20 04:21:25;;;;;;;5.40;3.33;;;7.70;99.90;;;;;;6091549;23;20437;-84
2022/02/20 04:23:53;;;;;;;5.97;3.17;;;7.60;99.90;;;;;;6089635;23;20433;-84
2022/02/20 04:26:20;;;;;;;3.73;2.90;;;7.60;99.90;;;;;;6065464;23;20441;-86
2022/02/20 04:28:47;;;;;;;7.57;3.57;;;7.80;99.90;;;;;;6065210;23;20489;-86
2022/02/20 04:31:32;;;;;;;6.27;3.47;;;8.10;99.90;;;;;;6086344;23;20441;-85
2022/02/20 04:34:08;;;;;;;5.03;3.57;;;8.30;99.90;;;;;;6064071;23;20520;-83
2022/02/20 04:36:48;;;;;;;3.27;2.97;;;8.20;99.90;;;;;;6065812;23;20436;-84
2022/02/20 04:39:28;;;;;;;8.90;3.30;;;8.10;99.90;;;;;;6065085;23;20413;-83
2022/02/20 04:42:05;;;;;;;4.93;2.87;;;8.20;99.90;;;;;;6064899;23;20420;-84
2022/02/20 04:44:55;;;;;;;3.90;3.40;;;8.30;99.90;;;;;;6063390;23;20421;-85
2022/02/20 04:47:25;;;;;;;6.67;3.80;;;8.20;99.90;;;;;;6086609;23;20437;-84
2022/02/20 04:49:52;;;;;;;5.83;3.70;;;8.20;99.90;;;;;;6086938;23;20406;-84
2022/02/20 04:52:18;;;;;;;4.23;3.70;;;8.20;99.90;;;;;;6076136;23;20406;-85
2022/02/20 04:54:45;;;;;;;5.27;3.67;;;8.00;99.90;;;;;;6074989;23;20441;-85
2022/02/20 04:57:12;;;;;;;5.97;3.63;;;8.00;99.90;;;;;;6074290;23;20498;-86
2022/02/20 04:59:39;;;;;;;9.40;3.60;;;8.00;99.90;;;;;;6072540;23;20425;-84
2022/02/20 05:02:05;;;;;;;9.80;3.97;;;8.20;99.90;;;;;;6056312;23;20485;-86
2022/02/20 05:04:55;;;;;;;4.97;3.47;;;8.20;99.90;;;;;;6081082;23;20410;-85
2022/02/20 05:07:22;;;;;;;4.70;3.47;;;8.00;99.90;;;;;;6031800;23;20500;-85
2022/02/20 05:09:54;;;;;;;4.80;4.13;;;8.10;99.90;;;;;;6049467;23;20421;-85
2022/02/20 05:12:25;;;;;;;7.20;3.80;;;8.10;99.90;;;;;;6050149;23;20428;-84
2022/02/20 05:14:55;;;;;;;10.00;4.40;;;8.10;99.90;;;;;;6075888;23;20442;-86
2022/02/20 05:17:25;;;;;;;7.83;3.80;;;8.00;99.90;;;;;;6075797;23;20437;-85
2022/02/20 05:19:52;;;;;;;4.40;3.20;;;7.80;99.90;;;;;;6075097;23;20410;-85
2022/02/20 05:22:21;;;;;;;6.60;3.37;;;8.10;99.90;;;;;;6049009;23;20410;-87
2022/02/20 05:24:51;;;;;;;5.07;3.80;;;8.20;99.90;;;;;;6048499;23;20421;-85
2022/02/20 05:27:21;;;;;;;5.93;3.37;;;8.20;99.90;;;;;;6076072;23;20441;-86
2022/02/20 05:29:57;;;;;;;6.90;3.77;;;8.20;99.90;;;;;;6072179;23;20417;-86
2022/02/20 05:32:38;;;;;;;6.83;3.90;;;8.20;99.90;;;;;;6050780;23;20761;-86
2022/02/20 05:35:07;;;;;;;7.07;3.73;;;8.10;99.90;;;;;;6073494;23;20452;-85
2022/02/20 05:37:41;;;;;;;3.73;2.70;;;8.10;99.90;;;;;;6057566;23;20524;-86
2022/02/20 05:40:10;;;;;;;4.70;4.30;;;8.00;99.90;;;;;;6073893;23;20420;-85
2022/02/20 05:42:37;;;;;;;3.63;3.33;;;7.90;99.90;;;;;;6078218;23;20493;-85
2022/02/20 05:45:04;;;;;;;8.10;3.43;;;7.90;99.90;;;;;;6070660;23;20433;-86
2022/02/20 05:47:31;;;;;;;6.33;3.60;;;7.90;99.90;;;;;;6062309;23;20441;-85
2022/02/20 05:49:58;;;;;;;4.60;3.20;;;7.90;99.90;;;;;;6070465;23;20425;-83
2022/02/20 05:52:26;;;;;;;4.83;3.17;;;7.80;99.90;;;;;;6096827;23;20401;-85
2022/02/20 05:54:53;;;;;;;5.43;3.03;;;7.90;99.90;;;;;;6095823;23;20449;-85
2022/02/20 05:57:20;;;;;;;4.63;2.70;;;7.80;99.90;;;;;;6073718;23;20945;-85
2022/02/20 05:59:47;;;;;;;4.43;2.53;;;7.90;99.90;;;;;;6072649;23;20424;-85
2022/02/20 06:02:15;;;;;;;7.20;3.33;;;7.80;99.90;;;;;;6076279;23;21299;-86
2022/02/20 06:04:42;;;;;;;5.43;3.30;;;7.80;99.90;;;;;;6071109;23;20418;-82
2022/02/20 06:07:10;;;;;;;4.40;2.83;;;7.90;99.90;;;;;;6073740;23;20472;-85
2022/02/20 06:09:37;;;;;;;3.10;2.40;;;7.90;99.90;;;;;;6072093;23;20445;-85
2022/02/20 06:12:09;;;;;;;7.73;2.90;;;8.00;99.90;;;;;;6074010;23;20405;-86
2022/02/20 06:14:43;;;;;;;10.70;3.10;;;8.10;99.90;;;;;;6071379;23;20451;-86
2022/02/20 06:17:11;;;;;;;6.83;2.77;;;7.90;99.90;;;;;;6069123;23;20461;-85
2022/02/20 06:19:44;;;;;;;14.00;3.30;;;8.00;99.90;;;;;;6094514;23;20421;-85
2022/02/20 06:22:12;;;;;;;9.13;2.67;;;8.10;99.90;;;;;;6094454;23;20913;-85
2022/02/20 06:24:38;;;;;;;6.17;2.50;;;8.20;99.90;;;;;;6073254;23;20421;-86
2022/02/20 06:27:08;;;;;;;7.87;3.30;;;8.40;99.90;;;;;;6071781;23;20438;-85
2022/02/20 06:29:35;;;;;;;7.03;2.60;;;8.40;99.90;;;;;;6073048;23;20413;-85
2022/02/20 06:32:02;;;;;;;10.97;2.53;;;8.40;99.90;;;;;;6072439;23;20654;-84
2022/02/20 06:34:30;;;;;;;7.93;2.43;;;8.40;99.90;;;;;;6073126;23;20454;-86
2022/02/20 06:36:57;;;;;;;5.93;2.57;;;8.40;99.90;;;;;;6069821;23;20473;-85
2022/02/20 06:39:23;;;;;;;4.57;2.23;;;8.30;99.90;;;;;;6072502;23;20439;-84
2022/02/20 06:41:50;;;;;;;4.90;2.20;;;8.40;99.90;;;;;;6072683;23;20710;-86
2022/02/20 06:44:19;;;;;;;10.27;2.37;;;8.30;99.90;;;;;;6073541;23;20894;-85
2022/02/20 06:46:46;;;;;;;7.27;2.90;;;8.40;99.90;;;;;;6068536;23;20452;-85
2022/02/20 06:49:13;;;;;;;6.77;3.17;;;8.40;99.90;;;;;;6069370;23;20416;-85
2022/02/20 06:51:40;;;;;;;8.03;2.83;;;8.30;99.90;;;;;;6069987;23;20508;-84
2022/02/20 06:54:06;;;;;;;7.30;2.30;;;8.50;99.90;;;;;;6074107;23;20498;-85
2022/02/20 06:56:33;;;;;;;5.33;2.43;;;8.50;99.90;;;;;;6069686;23;20532;-85
2022/02/20 06:59:03;;;;;;;5.70;2.43;;;8.60;99.90;;;;;;6073406;23;20409;-86
2022/02/20 07:01:29;;;;;;;5.07;2.57;;;8.60;99.90;;;;;;6071257;23;20427;-86
2022/02/20 07:03:56;;;;;;;5.90;2.30;;;8.60;99.90;;;;;;6070001;23;20413;-84
2022/02/20 07:06:23;;;;;;;7.27;2.80;;;8.60;99.90;;;;;;6071683;23;20428;-87
2022/02/20 07:08:52;;;;;;;11.37;4.20;;;8.50;99.90;;;;;;6068653;23;20421;-87
2022/02/20 07:11:18;;;;;;;8.60;2.40;;;8.50;99.90;;;;;;6072626;23;20480;-87
2022/02/20 07:13:45;;;;;;;7.87;2.70;;;8.40;99.90;;;;;;6070895;23;20424;-85
2022/02/20 07:16:12;;;;;;;6.37;2.47;;;8.50;99.90;;;;;;6069259;23;20437;-86
2022/02/20 07:18:38;;;;;;;9.83;2.30;;;8.60;99.90;;;;;;6069879;23;20430;-84
2022/02/20 07:21:05;;;;;;;8.87;2.80;;;8.60;99.90;;;;;;6071896;23;20816;-84
2022/02/20 07:23:32;;;;;;;6.13;2.33;;;8.80;99.90;;;;;;6071395;23;20420;-85
2022/02/20 07:25:58;;;;;;;5.10;2.50;;;8.80;99.90;;;;;;6068473;23;20739;-85
2022/02/20 07:28:25;;;;;;;11.70;3.10;;;8.90;99.90;;;;;;6092920;23;20443;-83
2022/02/20 07:30:52;;;;;;;14.17;2.83;;;8.80;99.90;;;;;;6070760;23;21054;-87
2022/02/20 07:33:18;;;;;;;9.73;2.10;;;8.90;99.90;;;;;;6071313;23;20496;-87
2022/02/20 07:35:45;;;;;;;8.40;3.03;;;9.00;99.90;;;;;;6072681;23;20446;-82
2022/02/20 07:38:12;;;;;;;9.60;2.63;;;9.00;99.90;;;;;;6074842;23;20441;-85
2022/02/20 07:40:39;;;;;;;7.47;3.17;;;9.00;99.90;;;;;;6071448;23;20413;-85
2022/02/20 07:43:05;;;;;;;7.60;2.47;;;9.10;99.90;;;;;;6045202;23;20412;-85
2022/02/20 07:45:35;;;;;;;7.57;2.60;;;9.10;99.90;;;;;;6073684;23;20427;-85
2022/02/20 07:48:03;;;;;;;8.57;2.40;;;9.00;99.90;;;;;;6068551;23;20520;-84
2022/02/20 07:50:37;;;;;;;6.70;2.07;;;9.20;99.90;;;;;;6068681;23;20421;-85
2022/02/20 07:53:05;;;;;;;10.80;3.03;;;9.20;99.90;;;;;;6074420;23;20417;-85
2022/02/20 07:55:32;;;;;;;10.10;2.60;;;9.30;99.90;;;;;;6077365;23;20453;-85
2022/02/20 07:58:10;;;;;;;9.90;3.13;;;9.30;99.90;;;;;;6072202;23;20464;-85
2022/02/20 08:00:41;;;;;;;9.47;2.40;;;9.40;99.90;;;;;;6049045;23;20440;-85
2022/02/20 08:03:09;;;;;;;9.07;2.60;;;9.40;99.90;;;;;;6048920;23;20409;-85
2022/02/20 08:05:36;;;;;;;6.70;2.10;;;9.30;99.90;;;;;;6073969;23;20406;-86
2022/02/20 08:08:02;;;;;;;7.60;2.17;;;9.30;99.90;;;;;;6074982;23;20493;-86
2022/02/20 08:10:29;;;;;;;7.67;2.13;;;9.30;99.90;;;;;;6071211;23;20451;-85
2022/02/20 08:12:56;;;;;;;4.67;2.00;;;9.40;99.90;;;;;;6072018;23;20413;-85
2022/02/20 08:15:24;;;;;;;5.67;1.73;;;9.20;99.90;;;;;;6071250;23;20456;-85
2022/02/20 08:17:53;;;;;;;5.13;2.00;;;9.00;99.90;;;;;;6074592;23;20463;-86
2022/02/20 08:20:21;;;;;;;6.57;2.00;;;9.10;99.90;;;;;;6048332;23;20416;-85
2022/02/20 08:22:48;;;;;;;3.10;1.73;;;9.50;99.90;;;;;;6073783;23;20409;-84
2022/02/20 08:25:15;;;;;;;13.27;1.93;;;9.60;99.90;;;;;;6072739;23;20428;-86
2022/02/20 08:27:45;;;;;;;4.57;1.43;;;9.30;99.90;;;;;;6049010;23;20434;-85
2022/02/20 08:30:13;;;;;;;4.13;1.67;;;9.50;99.90;;;;;;6073726;23;20425;-84
2022/02/20 08:32:40;;;;;;;3.13;1.30;;;9.80;99.90;;;;;;6073366;23;20441;-82
2022/02/20 08:35:09;;;;;;;6.27;1.63;;;9.70;99.90;;;;;;6047289;23;20452;-85
2022/02/20 08:37:43;;;;;;;6.23;1.87;;;9.80;99.90;;;;;;6058185;23;20461;-85
2022/02/20 08:40:12;;;;;;;2.63;1.30;;;9.80;99.90;;;;;;6070841;23;20509;-85
2022/02/20 08:42:39;;;;;;;3.67;1.40;;;9.90;99.90;;;;;;6073395;23;20488;-86
2022/02/20 08:45:20;;;;;;;1.47;0.83;;;9.90;99.90;;;;;;6072094;23;20414;-85
2022/02/20 08:47:58;;;;;;;4.40;0.97;;;9.90;99.90;;;;;;6072772;23;20479;-86
2022/02/20 08:50:38;;;;;;;1.57;1.33;;;10.10;99.90;;;;;;6074000;23;20417;-86
2022/02/20 08:53:30;;;;;;;1.33;0.90;;;10.10;99.90;;;;;;6086732;23;20421;-86
2022/02/20 08:56:08;;;;;;;1.23;0.70;;;9.80;99.90;;;;;;6089756;23;20481;-85
2022/02/20 08:58:44;;;;;;;1.47;0.80;;;10.10;99.90;;;;;;6082277;23;20433;-84
2022/02/20 09:01:38;;;;;;;1.07;0.50;;;10.20;99.90;;;;;;6091048;23;20413;-85
2022/02/20 09:04:17;;;;;;;1.37;0.60;;;10.10;99.90;;;;;;6091379;23;20747;-84
2022/02/20 09:07:11;;;;;;;1.07;0.50;;;10.50;99.90;;;;;;6087311;23;20449;-85
2022/02/20 09:10:18;;;;;;;0.70;0.40;;;10.60;99.90;;;;;;6075752;23;20409;-86
2022/02/20 09:16:10;;;;;;;0.90;0.80;;;10.20;99.90;;;;;;6075430;23;20449;-86
2022/02/20 09:24:48;;;;;;;1.10;0.80;;;10.50;99.90;;;;;;6071555;23;20929;-87
2022/02/20 09:27:55;;;;;;;0.80;0.50;;;10.70;99.90;;;;;;6068427;23;20437;-85
2022/02/20 09:31:05;;;;;;;1.20;0.87;;;10.80;99.90;;;;;;6080087;23;20421;-86
2022/02/20 09:34:01;;;;;;;1.27;0.50;;;10.80;99.90;;;;;;6054652;23;20544;-87
2022/02/20 09:37:11;;;;;;;0.50;0.50;;;10.90;99.90;;;;;;6065412;23;20509;-85
2022/02/20 09:40:25;;;;;;;1.40;0.70;;;10.70;99.90;;;;;;5980226;24;20424;-85
2022/02/20 09:43:27;;;;;;;0.73;0.60;;;10.70;99.90;;;;;;5959671;24;20453;-86
2022/02/20 09:46:50;;;;;;;;;;;;;;;;;;;;;
2022/02/20 09:49:53;;;;;;;1.00;0.60;;;10.70;99.90;;;;;;5964965;24;20493;-86
2022/02/20 09:52:46;;;;;;;1.37;0.60;;;10.90;99.90;;;;;;5963189;24;20408;-88
2022/02/20 09:55:21;;;;;;;1.70;0.97;;;10.80;99.90;;;;;;5986806;24;20518;-86
2022/02/20 09:57:48;;;;;;;0.80;0.70;;;10.80;99.90;;;;;;5969026;24;20423;-86
2022/02/20 10:00:42;;;;;;;1.90;0.63;;;10.90;99.90;;;;;;5993233;24;20440;-86
2022/02/20 10:03:47;;;;;;;1.70;0.80;;;10.80;99.90;;;;;;6000200;24;20408;-86
2022/02/20 10:06:59;;;;;;;2.10;0.70;;;10.90;99.90;;;;;;5992166;24;20424;-87
2022/02/20 10:10:10;;;;;;;1.50;0.67;;;10.90;99.90;;;;;;5991705;24;20456;-86
2022/02/20 10:17:29;;;;;;;;;;;;;;;;;;;;;
2022/02/20 10:24:34;;;;;;;2.43;0.97;;;11.10;99.90;;;;;;6105371;23;20481;-84
2022/02/20 10:27:46;;;;;;;3.20;0.93;;;11.10;99.90;;;;;;6032402;23;20492;-87
2022/02/20 10:35:19;;;;;;;;;;;;;;;;;;;;;
2022/02/20 10:45:11;;;;;;;2.03;0.90;;;11.70;99.90;;;;;;6105853;23;20523;-86
2022/02/20 10:48:58;;;;;;;1.63;0.80;;;11.50;99.90;;;;;;5894707;24;20419;-86
2022/02/20 10:59:24;;;;;;;1.10;0.60;;;11.40;99.90;;;;;;6002817;23;20421;-83
2022/02/20 11:02:40;;;;;;;0.80;0.70;;;11.70;99.90;;;;;;6074453;23;20441;-85
2022/02/20 11:06:32;;;;;;;0.77;0.50;;;11.80;99.90;;;;;;5992969;23;20393;-84
2022/02/20 11:10:24;;;;;;;0.50;0.50;;;11.60;99.90;;;;;;6067725;23;20430;-84
2022/02/20 11:16:56;;;;;;;0.70;0.60;;;11.90;99.90;;;;;;6059855;23;20532;-85
2022/02/20 11:38:54;;;;;;;2.13;1.00;;;11.60;99.90;;;;;;5922049;24;20402;-86
2022/02/20 11:42:39;;;;;;;;;;;;;;;;;;;;;
2022/02/20 11:51:39;;;;;;;3.33;1.20;;;11.60;99.90;;;;;;6103675;23;20452;-87
2022/02/20 11:54:41;;;;;;;3.10;1.40;;;11.90;99.90;;;;;;6104650;23;20916;-87
2022/02/20 12:01:45;;;;;;;;;;;;;;;;;;;;;
2022/02/20 12:05:12;;;;;;;3.53;1.03;;;12.20;99.90;;;;;;6041328;23;20386;-87
2022/02/20 12:08:39;;;;;;;2.00;1.00;;;11.90;99.90;;;;;;6028876;23;20403;-87
2022/02/20 12:14:41;;;;;;;7.83;1.70;;;11.80;99.90;;;;;;6109267;23;20523;-86
2022/02/20 12:21:50;;;;;;;2.90;1.57;;;11.90;99.90;;;;;;6104265;23;20935;-84
2022/02/20 12:25:11;;;;;;;4.13;1.67;;;11.90;99.90;;;;;;6080872;23;20473;-87
2022/02/20 12:28:38;;;;;;;7.83;2.67;;;11.80;99.90;;;;;;5995112;23;20468;-84
2022/02/20 12:32:11;;;;;;;8.23;2.00;;;11.80;99.90;;;;;;5912098;24;20856;-85
2022/02/20 12:35:28;;;;;;;3.97;1.20;;;11.90;99.90;;;;;;5875312;24;20566;-87
2022/02/20 12:42:59;;;;;;;;;;;;;;;;;;;;;
2022/02/20 12:49:53;;;;;;;4.37;1.60;;;11.80;99.90;;;;;;5941111;24;20461;-86
2022/02/20 12:53:08;;;;;;;;;;;;;;;;;;;;;
2022/02/20 13:03:51;;;;;;;;;;;;;;;;;;;;;
2022/02/20 13:14:40;;;;;;;3.60;1.37;;;12.10;99.90;;;;;;5886616;24;20399;-86
2022/02/20 13:18:17;;;;;;;4.20;1.67;;;12.00;99.90;;;;;;5867696;24;20465;-88
2022/02/20 13:21:33;;;;;;;4.80;2.03;;;12.00;99.90;;;;;;5784456;24;20439;-87
2022/02/20 13:36:47;;;;;;;;;;;;;;;;;;;;;
2022/02/20 13:54:23;;;;;;;6.80;1.60;;;12.10;99.90;;;;;;5850783;24;20460;-85
2022/02/20 13:58:04;;;;;;;4.60;2.20;;;12.00;99.90;;;;;;5768919;24;20926;-85
2022/02/20 14:01:23;;;;;;;6.80;1.93;;;12.00;99.90;;;;;;5732243;24;20483;-86
2022/02/20 14:13:03;;;;;;;6.30;1.80;;;12.00;99.90;;;;;;5790767;24;20860;-85
2022/02/20 14:16:57;;;;;;;;;;;;;;;;;;;;;
2022/02/20 14:27:33;;;;;;;;;;;;;;;;;;;;;
2022/02/20 14:38:39;;;;;;;6.27;2.53;;;11.80;99.90;;;;;;5766598;24;20459;-87
2022/02/20 14:42:03;;;;;;;5.20;2.00;;;11.90;99.90;;;;;;6087137;23;20559;-85
2022/02/20 14:45:29;;;;;;;;;;;;;;;;;;;;;
2022/02/20 14:56:28;;;;;;;10.90;2.57;;;12.10;99.90;;;;;;6092699;23;20392;-86
2022/02/20 15:11:32;;;;;;;;;;;;;;;;;;;;;
2022/02/20 15:15:24;;;;;;;;;;;;;;;;;;;;;
2022/02/20 15:37:38;;;;;;;4.83;2.57;;;12.00;99.90;;;;;;6105121;23;20447;-86
2022/02/20 15:45:20;;;;;;;;;;;;;;;;;;;;;
2022/02/20 15:53:22;;;;;;;2.80;2.50;;;12.10;99.90;;;;;;5895790;24;20487;-88
2022/02/20 16:16:04;;;;;;;3.03;1.33;;;12.00;99.90;;;;;;6043160;23;20417;-86
2022/02/20 16:20:02;;;;;;;;;;;;;;;;;;;;;
2022/02/20 16:30:43;;;;;;;1.77;1.00;;;12.40;99.90;;;;;;5816575;24;20482;-85
2022/02/20 16:49:43;;;;;;;;;;;;;;;;;;;;;
2022/02/20 16:53:28;;;;;;;;;;;;;;;;;;;;;
2022/02/20 17:01:01;;;;;;;;;;;;;;;;;;;;;
2022/02/20 17:04:34;;;;;;;4.10;1.30;;;12.20;99.90;;;;;;6035414;23;20373;-86
2022/02/20 17:07:57;;;;;;;3.60;2.33;;;12.00;99.90;;;;;;5865503;24;20748;-86
2022/02/20 17:15:26;;;;;;;4.80;1.37;;;12.00;99.90;;;;;;5892775;24;20940;-85
2022/02/20 17:18:40;;;;;;;2.80;1.53;;;12.20;99.90;;;;;;5879328;24;20949;-87
2022/02/20 17:22:21;;;;;;;3.50;2.00;;;12.20;99.90;;;;;;5922777;24;20431;-86
2022/02/20 17:31:04;;;;;;;3.37;1.43;;;12.00;99.90;;;;;;5763759;24;20403;-85
2022/02/20 17:34:52;;;;;;;5.20;1.77;;;12.10;99.90;;;;;;5738259;24;20490;-84
2022/02/20 17:38:02;;;;;;;;;;;;;;;;;;;;;
2022/02/20 17:52:27;;;;;;;4.17;1.70;;;12.40;99.90;;;;;;6102957;23;20452;-86
2022/02/20 17:56:24;;;;;;;4.77;2.00;;;12.30;99.90;;;;;;6102285;23;20409;-86
2022/02/20 17:59:45;;;;;;;4.33;2.07;;;12.50;99.90;;;;;;5937199;24;20431;-86
2022/02/20 18:03:36;;;;;;;4.23;2.20;;;12.60;99.90;;;;;;5985225;23;20886;-85
2022/02/20 18:17:57;;;;;;;9.70;2.60;;;12.40;99.90;;;;;;5712182;24;20488;-85
2022/02/20 18:21:19;;;;;;;6.80;3.33;;;12.80;99.90;;;;;;5831725;24;21096;-85
2022/02/20 18:25:10;;;;;;;6.50;3.80;;;12.50;99.90;;;;;;5953707;24;20400;-87
2022/02/20 18:29:09;;;;;;;6.83;2.57;;;12.70;99.90;;;;;;5870373;24;20412;-84
2022/02/20 18:32:50;;;;;;;4.17;1.83;;;12.50;99.90;;;;;;5933954;24;20393;-85
2022/02/20 18:35:50;;;;;;;;;;;;;;;;;;;;;
2022/02/20 18:43:02;;;;;;;2.30;1.60;;;12.60;99.90;;;;;;6061357;23;20572;-84
2022/02/20 18:46:04;;;;;;;3.90;2.03;;;12.80;99.90;;;;;;5990992;23;20392;-84
2022/02/20 18:49:34;;;;;;;4.37;2.23;;;12.60;99.90;;;;;;6096631;23;20448;-86
2022/02/20 18:52:41;;;;;;;4.37;2.40;;;12.60;99.90;;;;;;6078597;23;20447;-84
2022/02/20 18:55:38;;;;;;;4.00;2.17;;;12.80;99.90;;;;;;6070034;23;20404;-84
2022/02/20 18:58:30;;;;;;;6.20;1.93;;;12.70;99.90;;;;;;6098641;23;20476;-88
2022/02/20 19:04:34;;;;;;;3.40;2.30;;;12.60;99.90;;;;;;6103006;23;20397;-85
2022/02/20 19:07:51;;;;;;;7.30;3.43;;;12.90;99.90;;;;;;6101336;23;20425;-88
2022/02/20 19:10:51;;;;;;;;;;;;;;;;;;;;;
2022/02/20 19:14:05;;;;;;;11.30;5.73;;;12.90;99.90;;;;;;5961732;23;20405;-86
2022/02/20 19:17:02;;;;;;;;;;;;;;;;;;;;;
2022/02/20 19:20:04;;;;;;;6.30;3.37;;;12.70;99.90;;;;;;6105000;23;20483;-86
2022/02/20 19:22:51;;;;;;;6.50;3.63;;;12.80;99.90;;;;;;6102344;23;20468;-85
2022/02/20 19:25:30;;;;;;;2.47;2.27;;;12.90;99.90;;;;;;6106130;23;20863;-86
2022/02/20 19:28:11;;;;;;;6.90;2.40;;;12.80;99.90;;;;;;6101845;23;20412;-85
2022/02/20 19:31:02;;;;;;;8.10;2.47;;;12.80;99.90;;;;;;6100938;23;20424;-84
2022/02/20 19:33:42;;;;;;;6.27;2.47;;;13.10;99.90;;;;;;6102247;23;20507;-85
2022/02/20 19:36:13;;;;;;;4.07;2.00;;;13.20;99.90;;;;;;6102213;23;20412;-85
2022/02/20 19:39:00;;;;;;;5.37;2.73;;;13.20;99.90;;;;;;6098278;23;20885;-86
2022/02/20 19:41:45;;;;;;;5.50;1.90;;;12.90;99.90;;;;;;6107686;23;20479;-85